Аэропорт: Платов. Ростов-на-Дону

ICAO: URRP

METAR:
2019-07-23 18:30:00
URRP 231830Z 12003MPS CAVOK 27/14 Q1010 R05/CLRD70 NOSIG RMK QFE752/1003
METAR:
2019-07-23 16:55:00
TAF URRP 231655Z 2318/2418 12003G08MPS 9999 SCT030CB TX29/2412Z TN18/2402Z TEMPO 2400/2406 22003G08MPS 3100 BR SCT011 SCT030CB TEMPO 2406/2418 3100 -SHRA SCT011 SCT020CB PROB40 TEMPO 2406/2418 -TSRA SCT011 SCT020CB